createdAt,value
2023-03-02T00:02:10.643Z,102156.58
2023-03-02T00:04:47.441Z,102161.82
2023-03-02T00:07:21.460Z,102153.37
2023-03-02T00:09:49.836Z,102154.14
2023-03-02T00:12:18.317Z,102154.08
2023-03-02T00:14:46.712Z,102152.76
2023-03-02T00:17:15.090Z,102154.36
2023-03-02T00:19:45.118Z,102156.44
2023-03-02T00:22:13.596Z,102162.73
2023-03-02T00:24:41.818Z,102160.78
2023-03-02T00:27:10.172Z,102162.20
2023-03-02T00:29:38.442Z,102156.44
2023-03-02T00:32:07.095Z,102154.14
2023-03-02T00:34:35.536Z,102152.36
2023-03-02T00:37:03.798Z,102154.99
2023-03-02T00:39:32.396Z,102157.55
2023-03-02T00:42:01.104Z,102153.89
2023-03-02T00:44:29.569Z,102150.30
2023-03-02T00:46:58.620Z,102151.89
2023-03-02T00:49:27.048Z,102150.59
2023-03-02T00:51:55.231Z,102150.48
2023-03-02T00:54:23.781Z,102146.44
2023-03-02T00:56:52.523Z,102144.94
2023-03-02T00:59:27.551Z,102149.77
2023-03-02T01:02:32.195Z,102146.48
2023-03-02T01:05:00.854Z,102151.42
2023-03-02T01:07:29.233Z,102149.33
2023-03-02T01:09:57.619Z,102149.81
2023-03-02T01:12:26.008Z,102151.02
2023-03-02T01:14:55.314Z,102148.43
2023-03-02T01:17:25.468Z,102149.73
2023-03-02T01:19:54.757Z,102146.05
2023-03-02T01:22:23.234Z,102138.40
2023-03-02T01:24:52.126Z,102139.98
2023-03-02T01:27:20.616Z,102143.85
2023-03-02T01:29:50.844Z,102147.02
2023-03-02T01:32:19.545Z,102145.98
2023-03-02T01:34:49.452Z,102150.20
2023-03-02T01:37:17.733Z,102150.88
2023-03-02T01:39:47.068Z,102155.27
2023-03-02T01:42:16.006Z,102153.71
2023-03-02T01:44:57.156Z,102159.77
2023-03-02T01:47:32.702Z,102161.20
2023-03-02T01:50:23.169Z,102160.43
2023-03-02T01:52:55.803Z,102161.94
2023-03-02T01:55:29.594Z,102162.13
2023-03-02T01:57:59.660Z,102164.64
2023-03-02T02:00:33.398Z,102160.50
2023-03-02T02:03:09.532Z,102160.57
2023-03-02T02:05:41.187Z,102161.34
2023-03-02T02:08:10.413Z,102161.09
2023-03-02T02:10:40.850Z,102155.58
2023-03-02T02:13:11.454Z,102160.17
2023-03-02T02:15:41.636Z,102154.35
2023-03-02T02:18:10.604Z,102156.79
2023-03-02T02:20:47.964Z,102161.48
2023-03-02T02:23:28.206Z,102160.90
2023-03-02T02:26:00.029Z,102157.80
2023-03-02T02:28:35.030Z,102153.27
2023-03-02T02:31:09.466Z,102151.74
2023-03-02T02:33:41.310Z,102148.23
2023-03-02T02:36:17.566Z,102146.15
2023-03-02T02:38:51.991Z,102145.08
2023-03-02T02:41:26.617Z,102142.77
2023-03-02T02:43:56.305Z,102142.71
2023-03-02T02:46:25.913Z,102139.35
2023-03-02T02:48:54.436Z,102136.33
2023-03-02T02:51:26.935Z,102139.14
2023-03-02T02:54:00.012Z,102138.62
2023-03-02T02:56:36.375Z,102138.42
2023-03-02T02:59:07.948Z,102135.23
2023-03-02T03:01:36.452Z,102133.81
2023-03-02T03:04:06.283Z,102138.55
2023-03-02T03:06:42.686Z,102138.69
2023-03-02T03:09:12.368Z,102138.30
2023-03-02T03:11:50.838Z,102140.35
2023-03-02T03:14:25.144Z,102132.73
2023-03-02T03:16:54.136Z,102134.39
2023-03-02T03:19:29.391Z,102132.17
2023-03-02T03:22:01.758Z,102137.48
2023-03-02T03:24:34.753Z,102138.38
2023-03-02T03:27:07.578Z,102139.98
2023-03-02T03:29:39.595Z,102140.51
2023-03-02T03:32:09.567Z,102141.37
2023-03-02T03:34:41.163Z,102137.23
2023-03-02T03:37:19.899Z,102135.73
2023-03-02T03:39:48.589Z,102132.94
2023-03-02T03:42:18.402Z,102133.95
2023-03-02T03:44:47.706Z,102130.73
2023-03-02T03:47:17.017Z,102131.04
2023-03-02T03:49:45.602Z,102129.72
2023-03-02T03:52:13.883Z,102133.89
2023-03-02T03:54:42.471Z,102132.10
2023-03-02T03:57:12.298Z,102127.24
2023-03-02T03:59:41.193Z,102132.80
2023-03-02T04:02:09.971Z,102133.73
2023-03-02T04:04:41.941Z,102128.05
2023-03-02T04:07:16.572Z,102128.90
2023-03-02T04:09:46.012Z,102133.99
2023-03-02T04:12:15.894Z,102142.90
2023-03-02T04:14:48.676Z,102143.33
2023-03-02T04:17:17.368Z,102138.89
2023-03-02T04:19:48.223Z,102141.05
2023-03-02T04:22:17.420Z,102136.73
2023-03-02T04:24:47.823Z,102137.58
2023-03-02T04:27:16.844Z,102140.48
2023-03-02T04:29:45.641Z,102136.38
2023-03-02T04:32:17.534Z,102139.14
2023-03-02T04:34:50.191Z,102137.63
2023-03-02T04:37:19.318Z,102138.15
2023-03-02T04:39:51.618Z,102136.85
2023-03-02T04:42:21.295Z,102139.14
2023-03-02T04:44:50.078Z,102142.78
2023-03-02T04:47:19.487Z,102139.40
2023-03-02T04:49:50.743Z,102135.68
2023-03-02T04:52:19.135Z,102139.34
2023-03-02T04:54:48.025Z,102141.93
2023-03-02T04:57:16.611Z,102142.29
2023-03-02T04:59:44.795Z,102143.83
2023-03-02T05:02:13.392Z,102142.92
2023-03-02T05:04:42.511Z,102143.98
2023-03-02T05:07:11.172Z,102146.11
2023-03-02T05:09:39.654Z,102143.73
2023-03-02T05:12:08.243Z,102144.52
2023-03-02T05:14:36.538Z,102149.08
2023-03-02T05:17:04.870Z,102150.28
2023-03-02T05:19:33.293Z,102157.56
2023-03-02T05:22:02.371Z,102156.23
2023-03-02T05:24:30.986Z,102160.16
2023-03-02T05:26:59.268Z,102162.71
2023-03-02T05:29:27.650Z,102161.09
2023-03-02T05:31:55.989Z,102164.55
2023-03-02T05:34:24.339Z,102173.82
2023-03-02T05:36:52.511Z,102173.27
2023-03-02T05:39:20.824Z,102173.05
2023-03-02T05:41:49.099Z,102177.58
2023-03-02T05:44:17.660Z,102177.38
2023-03-02T05:46:46.696Z,102179.14
2023-03-02T05:49:15.543Z,102180.42
2023-03-02T05:51:44.035Z,102181.66
2023-03-02T05:54:12.944Z,102183.23
2023-03-02T05:56:41.728Z,102184.00
2023-03-02T05:59:10.204Z,102179.80
2023-03-02T06:01:39.028Z,102177.67
2023-03-02T06:04:07.502Z,102178.09
2023-03-02T06:06:36.154Z,102176.67
2023-03-02T06:09:04.774Z,102174.11
2023-03-02T06:11:32.951Z,102173.06
2023-03-02T06:14:01.331Z,102179.81
2023-03-02T06:16:29.764Z,102178.06
2023-03-02T06:18:57.995Z,102184.77
2023-03-02T06:21:26.385Z,102183.52
2023-03-02T06:23:57.439Z,102187.08
2023-03-02T06:26:26.022Z,102185.50
2023-03-02T06:28:54.409Z,102192.66
2023-03-02T06:31:25.080Z,102195.52
2023-03-02T06:33:56.695Z,102191.73
2023-03-02T06:36:25.840Z,102191.27
2023-03-02T06:38:54.642Z,102184.43
2023-03-02T06:41:23.283Z,102178.93
2023-03-02T06:43:51.776Z,102177.08
2023-03-02T06:46:20.425Z,102182.00
2023-03-02T06:48:49.049Z,102181.19
2023-03-02T06:51:18.158Z,102187.01
2023-03-02T06:53:46.457Z,102184.55
2023-03-02T06:56:15.432Z,102183.37
2023-03-02T06:58:44.019Z,102189.26
2023-03-02T07:01:12.431Z,102198.86
2023-03-02T07:03:40.893Z,102200.03
2023-03-02T07:06:11.628Z,102199.63
2023-03-02T07:08:41.250Z,102197.13
2023-03-02T07:11:12.281Z,102201.90
2023-03-02T07:13:40.566Z,102199.77
2023-03-02T07:16:11.783Z,102197.28
2023-03-02T07:18:40.508Z,102196.70
2023-03-02T07:21:08.796Z,102200.89
2023-03-02T07:23:37.174Z,102203.37
2023-03-02T07:26:08.783Z,102199.89
2023-03-02T07:28:43.417Z,102207.67
2023-03-02T07:31:12.552Z,102203.88
2023-03-02T07:33:41.145Z,102204.83
2023-03-02T07:36:09.845Z,102208.11
2023-03-02T07:38:38.954Z,102210.04
2023-03-02T07:41:09.359Z,102201.61
2023-03-02T07:43:38.068Z,102198.43
2023-03-02T07:46:06.928Z,102195.48
2023-03-02T07:48:35.768Z,102196.31
2023-03-02T07:51:06.166Z,102197.56
2023-03-02T07:53:34.382Z,102196.54
2023-03-02T07:56:07.788Z,102197.25
2023-03-02T07:58:36.664Z,102191.77
2023-03-02T08:01:12.629Z,102190.79
2023-03-02T08:03:46.526Z,102191.41
2023-03-02T08:06:15.118Z,102191.38
2023-03-02T08:08:43.310Z,102198.05
2023-03-02T08:11:16.077Z,102196.02
2023-03-02T08:13:44.893Z,102196.45
2023-03-02T08:16:15.579Z,102197.38
2023-03-02T08:18:44.346Z,102199.08
2023-03-02T08:21:18.932Z,102197.10
2023-03-02T08:23:47.823Z,102191.41
2023-03-02T08:26:17.671Z,102192.83
2023-03-02T08:28:46.952Z,102193.60
2023-03-02T08:31:15.900Z,102188.30
2023-03-02T08:33:46.402Z,102184.27
2023-03-02T08:36:19.781Z,102183.08
2023-03-02T08:38:49.628Z,102181.41
2023-03-02T08:41:22.453Z,102178.51
2023-03-02T08:43:54.282Z,102178.09
2023-03-02T08:46:23.148Z,102170.40
2023-03-02T08:48:51.856Z,102166.75
2023-03-02T08:51:24.204Z,102168.61
2023-03-02T08:54:14.273Z,102169.27
2023-03-02T08:57:37.492Z,102168.02
2023-03-02T09:00:19.796Z,102161.91
2023-03-02T09:02:53.872Z,102160.58
2023-03-02T09:05:25.390Z,102167.09
2023-03-02T09:07:53.980Z,102167.14
2023-03-02T09:10:22.364Z,102161.22
2023-03-02T09:12:50.949Z,102157.92
2023-03-02T09:15:19.339Z,102153.84
2023-03-02T09:17:47.681Z,102151.41
2023-03-02T09:20:30.206Z,102148.58
2023-03-02T09:22:58.612Z,102144.70
2023-03-02T09:25:27.107Z,102137.66
2023-03-02T09:27:55.497Z,102131.95
2023-03-02T09:30:23.976Z,102128.45
2023-03-02T09:32:52.404Z,102125.27
2023-03-02T09:35:20.900Z,102125.98
2023-03-02T09:37:49.391Z,102121.23
2023-03-02T09:40:23.844Z,102115.36
2023-03-02T09:43:02.169Z,102109.06
2023-03-02T09:45:49.795Z,102103.54
2023-03-02T09:48:24.781Z,102093.31
2023-03-02T09:51:10.307Z,102095.61
2023-03-02T09:53:52.896Z,102097.02
2023-03-02T09:56:28.469Z,102089.13
2023-03-02T09:59:27.865Z,102091.15
2023-03-02T10:02:16.717Z,102090.71
2023-03-02T10:05:02.869Z,102093.97
2023-03-02T10:07:39.098Z,102085.39
2023-03-02T10:10:22.211Z,102086.44
2023-03-02T10:13:17.690Z,102075.45
2023-03-02T10:16:03.090Z,102071.21
2023-03-02T10:19:13.234Z,102069.64
2023-03-02T10:22:02.160Z,102061.41
2023-03-02T10:25:01.606Z,102055.02
2023-03-02T10:27:57.690Z,102048.51
2023-03-02T10:30:43.344Z,102043.05
2023-03-02T10:33:37.719Z,102035.91
2023-03-02T10:36:22.373Z,102029.08
2023-03-02T10:38:54.889Z,102024.12
2023-03-02T10:41:29.461Z,102021.98
2023-03-02T10:44:18.211Z,102020.98
2023-03-02T10:46:47.754Z,102009.73
2023-03-02T10:49:34.323Z,102005.62
2023-03-02T10:52:08.638Z,102007.04
2023-03-02T10:54:37.544Z,102005.38
2023-03-02T10:57:31.700Z,102004.54
2023-03-02T11:00:15.451Z,102008.67
2023-03-02T11:02:52.830Z,102001.10
2023-03-02T11:05:29.710Z,101998.89
2023-03-02T11:08:06.692Z,101999.25
2023-03-02T11:10:51.972Z,101996.26
2023-03-02T11:13:27.009Z,101998.55
2023-03-02T11:15:59.908Z,101988.63
2023-03-02T11:18:37.699Z,101990.48
2023-03-02T11:21:08.624Z,101986.97
2023-03-02T11:24:05.153Z,101977.04
2023-03-02T11:26:47.788Z,101977.98
2023-03-02T11:29:28.020Z,101971.80
2023-03-02T11:32:01.590Z,101969.88
2023-03-02T11:34:54.576Z,101965.77
2023-03-02T11:37:39.347Z,101963.55
2023-03-02T11:40:37.388Z,101966.02
2023-03-02T11:43:05.888Z,101963.36
2023-03-02T11:45:38.308Z,101962.08
2023-03-02T11:48:31.107Z,101959.47
2023-03-02T11:51:03.464Z,101951.52
2023-03-02T11:53:58.620Z,101946.92
2023-03-02T11:56:31.862Z,101942.54
2023-03-02T11:59:04.965Z,101937.08
2023-03-02T12:01:36.447Z,101934.95
2023-03-02T12:04:11.382Z,101931.60
2023-03-02T12:06:42.346Z,101927.02
2023-03-02T12:09:24.704Z,101922.06
2023-03-02T12:12:00.541Z,101921.31
2023-03-02T12:14:49.300Z,101917.77
2023-03-02T12:17:31.394Z,101914.12
2023-03-02T12:20:08.789Z,101917.57
2023-03-02T12:22:38.089Z,101916.08
2023-03-02T12:25:18.850Z,101915.23
2023-03-02T12:27:50.306Z,101910.47
2023-03-02T12:30:23.997Z,101904.75
2023-03-02T12:33:19.872Z,101905.11
2023-03-02T12:35:57.315Z,101899.88
2023-03-02T12:38:31.239Z,101902.44
2023-03-02T12:41:17.732Z,101892.63
2023-03-02T12:43:55.591Z,101888.59
2023-03-02T12:46:37.427Z,101883.95
2023-03-02T12:49:13.948Z,101883.98
2023-03-02T12:52:04.364Z,101878.28
2023-03-02T12:54:34.911Z,101876.02
2023-03-02T12:57:18.987Z,101869.77
2023-03-02T12:59:55.965Z,101866.14
2023-03-02T13:02:29.489Z,101862.88
2023-03-02T13:05:00.633Z,101863.66
2023-03-02T13:07:44.204Z,101860.52
2023-03-02T13:10:36.313Z,101861.85
2023-03-02T13:13:20.457Z,101858.06
2023-03-02T13:16:06.688Z,101853.95
2023-03-02T13:18:39.559Z,101847.23
2023-03-02T13:21:13.269Z,101838.71
2023-03-02T13:23:50.088Z,101835.61
2023-03-02T13:26:40.601Z,101831.98
2023-03-02T13:29:15.041Z,101831.86
2023-03-02T13:31:43.464Z,101828.41
2023-03-02T13:34:23.335Z,101824.16
2023-03-02T13:36:52.069Z,101823.95
2023-03-02T13:39:28.252Z,101815.92
2023-03-02T13:41:59.061Z,101813.95
2023-03-02T13:44:35.435Z,101807.09
2023-03-02T13:47:04.232Z,101800.86
2023-03-02T13:49:35.840Z,101801.48
2023-03-02T13:52:22.892Z,101801.80
2023-03-02T13:54:51.479Z,101798.21
2023-03-02T13:57:30.572Z,101793.42
2023-03-02T14:00:00.147Z,101791.14
2023-03-02T14:02:30.663Z,101785.27
2023-03-02T14:04:59.146Z,101782.52
2023-03-02T14:07:27.629Z,101779.52
2023-03-02T14:09:57.528Z,101770.33
2023-03-02T14:12:29.617Z,101767.77
2023-03-02T14:15:01.713Z,101763.98
2023-03-02T14:17:30.577Z,101756.60
2023-03-02T14:19:59.074Z,101755.13
2023-03-02T14:22:29.812Z,101751.45
2023-03-02T14:24:58.088Z,101746.68
2023-03-02T14:27:30.162Z,101745.56
2023-03-02T14:29:59.323Z,101746.15
2023-03-02T14:32:28.307Z,101744.59
2023-03-02T14:34:57.599Z,101743.11
2023-03-02T14:37:29.133Z,101748.80
2023-03-02T14:39:57.888Z,101745.92
2023-03-02T14:42:26.397Z,101747.36
2023-03-02T14:44:55.027Z,101748.98
2023-03-02T14:47:24.404Z,101747.78
2023-03-02T14:49:53.799Z,101752.33
2023-03-02T14:52:38.467Z,101748.86
2023-03-02T14:55:18.693Z,101741.34
2023-03-02T14:57:51.602Z,101746.30
2023-03-02T15:00:20.919Z,101737.45
2023-03-02T15:02:49.637Z,101737.02
2023-03-02T15:05:18.783Z,101734.95
2023-03-02T15:07:47.495Z,101738.58
2023-03-02T15:10:19.161Z,101737.89
2023-03-02T15:12:47.442Z,101733.05
2023-03-02T15:15:15.924Z,101735.52
2023-03-02T15:17:44.106Z,101735.17
2023-03-02T15:20:16.948Z,101736.48
2023-03-02T15:22:45.482Z,101735.74
2023-03-02T15:25:13.909Z,101735.21
2023-03-02T15:27:43.068Z,101741.25
2023-03-02T15:30:21.191Z,101739.13
2023-03-02T15:32:49.365Z,101743.45
2023-03-02T15:35:18.042Z,101742.60
2023-03-02T15:37:46.740Z,101742.07
2023-03-02T15:40:15.529Z,101743.60
2023-03-02T15:42:43.805Z,101742.30
2023-03-02T15:45:12.298Z,101743.77
2023-03-02T15:47:41.185Z,101746.23
2023-03-02T15:50:10.531Z,101747.42
2023-03-02T15:52:38.794Z,101749.11
2023-03-02T15:55:07.583Z,101751.81
2023-03-02T15:58:36.467Z,101756.14
2023-03-02T16:01:44.431Z,101759.73
2023-03-02T16:04:12.703Z,101761.23
2023-03-02T16:06:41.302Z,101758.98
2023-03-02T16:09:10.516Z,101763.13
2023-03-02T16:11:44.008Z,101768.75
2023-03-02T16:14:15.754Z,101768.35
2023-03-02T16:16:45.846Z,101768.35
2023-03-02T16:19:18.990Z,101764.46
2023-03-02T16:21:48.805Z,101767.33
2023-03-02T16:24:17.235Z,101768.89
2023-03-02T16:26:46.157Z,101773.48
2023-03-02T16:29:14.644Z,101773.98
2023-03-02T16:31:46.692Z,101773.61
2023-03-02T16:34:15.434Z,101773.64
2023-03-02T16:36:44.544Z,101775.98
2023-03-02T16:39:13.632Z,101782.06
2023-03-02T16:41:43.852Z,101782.41
2023-03-02T16:44:16.323Z,101780.23
2023-03-02T16:46:44.881Z,101782.39
2023-03-02T16:49:14.748Z,101783.19
2023-03-02T16:51:43.324Z,101777.64
2023-03-02T16:54:16.216Z,101779.17
2023-03-02T16:56:47.674Z,101783.05
2023-03-02T16:59:16.687Z,101786.27
2023-03-02T17:01:45.452Z,101789.09
2023-03-02T17:04:14.196Z,101789.58
2023-03-02T17:07:00.435Z,101790.70
2023-03-02T17:09:30.585Z,101791.77
2023-03-02T17:11:58.948Z,101795.15
2023-03-02T17:14:28.151Z,101793.96
2023-03-02T17:16:57.269Z,101791.81
2023-03-02T17:19:32.716Z,101788.02
2023-03-02T17:22:02.736Z,101787.37
2023-03-02T17:24:31.814Z,101786.49
2023-03-02T17:27:00.425Z,101779.95
2023-03-02T17:29:28.907Z,101785.67
2023-03-02T17:31:57.250Z,101785.76
2023-03-02T17:34:28.832Z,101783.14
2023-03-02T17:37:00.951Z,101781.11
2023-03-02T17:39:29.898Z,101782.59
2023-03-02T17:41:58.491Z,101779.66
2023-03-02T17:44:27.722Z,101781.20
2023-03-02T17:46:56.897Z,101783.61
2023-03-02T17:49:25.383Z,101779.86
2023-03-02T17:51:53.769Z,101778.82
2023-03-02T17:54:22.459Z,101778.77
2023-03-02T17:56:51.146Z,101781.65
2023-03-02T17:59:19.851Z,101778.79
2023-03-02T18:01:48.339Z,101778.00
2023-03-02T18:04:16.585Z,101776.50
2023-03-02T18:06:44.992Z,101779.37
2023-03-02T18:09:13.480Z,101779.10
2023-03-02T18:11:45.040Z,101776.72
2023-03-02T18:14:16.503Z,101777.23
2023-03-02T18:16:45.285Z,101772.61
2023-03-02T18:19:13.871Z,101774.30
2023-03-02T18:21:42.705Z,101771.35
2023-03-02T18:24:11.358Z,101773.22
2023-03-02T18:26:39.882Z,101770.16
2023-03-02T18:29:08.241Z,101775.08
2023-03-02T18:31:37.069Z,101778.27
2023-03-02T18:34:05.822Z,101777.45
2023-03-02T18:36:34.202Z,101775.77
2023-03-02T18:39:04.138Z,101777.31
2023-03-02T18:41:32.917Z,101778.90
2023-03-02T18:44:01.599Z,101777.69
2023-03-02T18:46:31.654Z,101777.00
2023-03-02T18:49:01.167Z,101777.38
2023-03-02T18:51:29.723Z,101774.42
2023-03-02T18:53:58.116Z,101776.15
2023-03-02T18:56:26.599Z,101776.69
2023-03-02T18:58:55.301Z,101777.14
2023-03-02T19:01:23.602Z,101783.85
2023-03-02T19:03:53.386Z,101786.14
2023-03-02T19:06:23.307Z,101789.80
2023-03-02T19:08:52.208Z,101784.61
2023-03-02T19:11:20.802Z,101789.95
2023-03-02T19:13:49.487Z,101791.26
2023-03-02T19:16:18.605Z,101793.60
2023-03-02T19:18:48.746Z,101790.85
2023-03-02T19:21:17.525Z,101792.05
2023-03-02T19:23:46.636Z,101791.68
2023-03-02T19:26:16.217Z,101793.79
2023-03-02T19:28:44.815Z,101789.15
2023-03-02T19:31:13.982Z,101786.95
2023-03-02T19:33:45.102Z,101783.65
2023-03-02T19:36:14.261Z,101789.58
2023-03-02T19:38:44.671Z,101788.47
2023-03-02T19:41:19.111Z,101792.00
2023-03-02T19:43:47.909Z,101791.36
2023-03-02T19:46:17.916Z,101791.73
2023-03-02T19:48:46.309Z,101790.16
2023-03-02T19:51:15.929Z,101795.14
2023-03-02T19:53:46.253Z,101797.25
2023-03-02T19:56:16.407Z,101801.40
2023-03-02T19:58:49.925Z,101799.92
2023-03-02T20:01:21.924Z,101802.08
2023-03-02T20:03:52.756Z,101800.02
2023-03-02T20:06:24.343Z,101796.20
2023-03-02T20:08:52.825Z,101796.93
2023-03-02T20:11:22.752Z,101794.40
2023-03-02T20:13:52.980Z,101792.65
2023-03-02T20:16:23.129Z,101791.42
2023-03-02T20:18:52.763Z,101790.75
2023-03-02T20:21:21.432Z,101783.96
2023-03-02T20:23:50.247Z,101779.11
2023-03-02T20:26:19.419Z,101779.18
2023-03-02T20:28:48.464Z,101778.23
2023-03-02T20:31:18.273Z,101776.91
2023-03-02T20:33:50.288Z,101774.66
2023-03-02T20:36:24.306Z,101776.95
2023-03-02T20:39:08.948Z,101774.16
2023-03-02T20:41:37.745Z,101769.44
2023-03-02T20:44:06.640Z,101765.65
2023-03-02T20:46:43.106Z,101767.34
2023-03-02T20:49:15.340Z,101763.23
2023-03-02T20:51:51.342Z,101760.55
2023-03-02T20:54:22.794Z,101759.23
2023-03-02T20:56:52.102Z,101755.95
2023-03-02T20:59:21.500Z,101752.70
2023-03-02T21:01:50.432Z,101751.35
2023-03-02T21:04:18.982Z,101745.59
2023-03-02T21:06:47.482Z,101743.39
2023-03-02T21:09:18.084Z,101738.67
2023-03-02T21:11:47.574Z,101738.68
2023-03-02T21:14:16.223Z,101737.69
2023-03-02T21:16:45.047Z,101730.73
2023-03-02T21:19:16.969Z,101730.80
2023-03-02T21:21:45.666Z,101731.23
2023-03-02T21:24:17.076Z,101733.05
2023-03-02T21:26:46.807Z,101725.89
2023-03-02T21:29:16.831Z,101726.25
2023-03-02T21:31:46.293Z,101725.41
2023-03-02T21:34:16.113Z,101724.92
2023-03-02T21:36:44.578Z,101723.53
2023-03-02T21:39:14.142Z,101721.97
2023-03-02T21:41:42.776Z,101719.48
2023-03-02T21:44:11.770Z,101716.80
2023-03-02T21:46:40.497Z,101716.79
2023-03-02T21:49:09.259Z,101710.80
2023-03-02T21:51:37.842Z,101709.52
2023-03-02T21:54:06.057Z,101708.39
2023-03-02T21:56:35.688Z,101708.20
2023-03-02T21:59:04.529Z,101708.69
2023-03-02T22:01:35.743Z,101704.88
2023-03-02T22:04:04.476Z,101701.95
2023-03-02T22:06:34.601Z,101702.37
2023-03-02T22:09:04.326Z,101702.09
2023-03-02T22:11:35.662Z,101700.48
2023-03-02T22:14:15.229Z,101703.23
2023-03-02T22:16:47.611Z,101702.73
2023-03-02T22:19:27.090Z,101698.39
2023-03-02T22:22:00.614Z,101703.02
2023-03-02T22:24:31.608Z,101699.02
2023-03-02T22:27:19.085Z,101699.06
2023-03-02T22:29:48.353Z,101699.32
2023-03-02T22:32:22.772Z,101696.91
2023-03-02T22:34:59.285Z,101695.06
2023-03-02T22:37:30.527Z,101690.06
2023-03-02T22:40:17.234Z,101694.42
2023-03-02T22:42:45.924Z,101687.94
2023-03-02T22:45:22.249Z,101686.52
2023-03-02T22:47:53.705Z,101685.98
2023-03-02T22:50:28.482Z,101687.84
2023-03-02T22:52:58.596Z,101687.28
2023-03-02T22:55:42.344Z,101685.82
2023-03-02T22:58:31.185Z,101682.52
2023-03-02T23:01:01.890Z,101680.00
2023-03-02T23:03:39.186Z,101681.84
2023-03-02T23:06:24.767Z,101681.05
2023-03-02T23:08:55.433Z,101676.41
2023-03-02T23:11:26.164Z,101675.80
2023-03-02T23:13:55.648Z,101670.58
2023-03-02T23:16:27.477Z,101672.13
2023-03-02T23:18:59.444Z,101667.97
2023-03-02T23:21:48.763Z,101666.08
2023-03-02T23:24:19.203Z,101657.73
2023-03-02T23:26:51.573Z,101655.88
2023-03-02T23:29:21.410Z,101653.98
2023-03-02T23:31:50.265Z,101651.56
2023-03-02T23:34:18.769Z,101647.09
2023-03-02T23:36:47.158Z,101645.77
2023-03-02T23:39:16.364Z,101640.64
2023-03-02T23:41:44.947Z,101638.11
2023-03-02T23:44:13.435Z,101637.84
2023-03-02T23:46:42.740Z,101644.05
2023-03-02T23:49:11.737Z,101645.73
2023-03-02T23:51:40.408Z,101640.88
2023-03-02T23:54:08.606Z,101638.27
2023-03-02T23:56:36.993Z,101634.98
2023-03-02T23:59:05.879Z,101634.34
